Current Weather

Carlos Miguel Gimenez

Carlos Miguel Gimenez, Paraguay (SGPI)

Report from: Saturday, February 4, 2023 9:00 AM UTC
Current time: Sunday, February 5, 2023 4:14 AM UTC

Nearby weather
Weather history
Weather forecast

Temperature20.0°C (68.0°F)
Dew point18.0°C (64.4°F)
Winds 2 kts (1 m/s, 2.3 mph) South (180°)
Clouds Sky clear
Altimeter29.88 in.Hg (1012 mB)
Relative humidity88 %
Density altitude909 ft. (277 m)
Remarks Ceiling and visibility OK
Flight conditions Visual Meteorological Conditions
Raw dataSGPI 040900Z 18002KT CAVOK 20/18 Q1012
An unhandled exception has occurred. See browser dev tools for details. Reload 🗙